Time;durP1;ratioP1;P1;durP2;ratioP2;P2;SDS_P1;SDS_P2;PMS_P1;PMS_P2;Temp;Humidity;BMP_temperature;BMP_pressure;BME280_temperature;BME280_humidity;BME280_pressure;Samples;Min_cycle;Max_cycle;Signal;HPM_P1;HPM_P2
2023/10/20 00:02:50;;;;;;;23.73;22.83;;;;;;;-141.02;100.00;39318.88;5115734;28;20192;-69
2023/10/20 00:05:19;;;;;;;33.60;32.10;;;;;;;-141.02;100.00;39293.94;5115605;28;20221;-67
2023/10/20 00:07:48;;;;;;;34.80;33.20;;;;;;;-141.02;100.00;39328.47;5115923;28;20197;-69
2023/10/20 00:10:17;;;;;;;36.05;34.35;;;;;;;-141.02;100.00;39297.78;5115577;28;20208;-68
2023/10/20 00:12:46;;;;;;;32.92;31.42;;;;;;;-141.02;100.00;39278.59;5115744;28;20197;-67
2023/10/20 00:15:17;;;;;;;33.03;31.52;;;;;;;-141.02;100.00;39299.69;5115491;28;20212;-70
2023/10/20 00:17:44;;;;;;;33.50;32.00;;;;;;;-141.02;100.00;39269.00;5115293;28;20685;-67
2023/10/20 00:20:14;;;;;;;34.03;32.53;;;;;;;-141.02;100.00;39309.28;5115622;28;20243;-67
2023/10/20 00:22:42;;;;;;;32.95;31.55;;;;;;;-141.02;100.00;39301.63;5115323;28;20189;-69
2023/10/20 00:25:12;;;;;;;35.05;33.38;;;;;;;-141.02;100.00;39293.94;5115438;28;20189;-69
2023/10/20 00:27:42;;;;;;;33.08;31.58;;;;;;;-141.02;100.00;39288.19;5115262;28;20189;-69
2023/10/20 00:30:14;;;;;;;33.85;32.35;;;;;;;-141.02;100.00;39274.78;5115418;28;20272;-67
2023/10/20 00:32:54;;;;;;;32.10;30.70;;;;;;;-141.02;100.00;39234.50;5115473;28;20193;-70
2023/10/20 00:35:24;;;;;;;32.47;31.08;;;;;;;-141.02;100.00;39247.91;5115004;28;20258;-68
2023/10/20 00:37:54;;;;;;;32.30;30.90;;;;;;;-141.02;100.00;39236.41;5114959;28;20204;-67
2023/10/20 00:40:21;;;;;;;32.20;30.80;;;;;;;-141.02;100.00;39213.41;5114955;28;20193;-69
2023/10/20 00:42:57;;;;;;;31.20;29.90;;;;;;;-141.02;100.00;39201.91;5115208;28;20571;-67
2023/10/20 00:45:27;;;;;;;30.42;29.13;;;;;;;-141.02;100.00;39180.81;5114772;28;20320;-69
2023/10/20 00:48:15;;;;;;;30.75;29.45;;;;;;;-141.02;100.00;39152.03;5114768;28;20659;-70
2023/10/20 00:50:45;;;;;;;28.70;27.50;;;;;;;-141.02;100.00;39155.88;5114807;28;20716;-68
2023/10/20 00:53:15;;;;;;;28.63;27.42;;;;;;;-141.02;100.00;39152.03;5115241;28;20225;-67
2023/10/20 00:55:44;;;;;;;31.85;30.45;;;;;;;-141.02;100.00;39144.38;5114374;28;20567;-67
2023/10/20 00:58:13;;;;;;;29.83;28.52;;;;;;;-141.02;100.00;39123.28;5114894;28;20197;-69
2023/10/20 01:00:42;;;;;;;26.88;25.77;;;;;;;-141.02;100.00;39102.19;5114531;28;20193;-68
2023/10/20 01:03:12;;;;;;;32.20;30.80;;;;;;;-141.02;100.00;39109.84;5114831;28;20193;-68
2023/10/20 01:05:41;;;;;;;31.52;30.15;;;;;;;-141.02;100.00;39113.69;5113853;28;20235;-67
2023/10/20 01:08:11;;;;;;;31.83;30.42;;;;;;;-141.02;100.00;39109.84;5114470;28;20193;-67
2023/10/20 01:10:41;;;;;;;33.25;31.75;;;;;;;-141.02;100.00;39109.84;5114386;28;20194;-67
2023/10/20 01:13:30;;;;;;;30.90;29.60;;;;;;;-141.02;100.00;39136.69;5114337;28;20193;-69
2023/10/20 01:15:57;;;;;;;35.83;34.13;;;;;;;-141.02;100.00;39119.44;5114388;28;20232;-69
2023/10/20 01:18:25;;;;;;;31.48;30.08;;;;;;;-141.02;100.00;39098.34;5114592;28;20188;-67
2023/10/20 01:20:52;;;;;;;30.25;28.95;;;;;;;-141.02;100.00;39127.09;5114359;28;20189;-67
2023/10/20 01:23:20;;;;;;;31.00;29.67;;;;;;;-141.02;100.00;39104.09;5114135;28;20193;-70
2023/10/20 01:25:50;;;;;;;32.88;31.48;;;;;;;-141.02;100.00;39088.75;5113988;28;20653;-67
2023/10/20 01:28:18;;;;;;;33.50;32.00;;;;;;;-141.02;100.00;39086.84;5114401;28;20654;-69
2023/10/20 01:30:48;;;;;;;33.05;31.55;;;;;;;-141.02;100.00;39061.91;5113934;28;20638;-67
2023/10/20 01:33:38;;;;;;;32.60;31.20;;;;;;;-141.02;100.00;39025.47;5113849;28;20195;-69
2023/10/20 01:36:24;;;;;;;32.42;31.02;;;;;;;-141.02;100.00;38964.13;5113731;28;20225;-67
2023/10/20 01:38:53;;;;;;;30.83;29.52;;;;;;;-141.02;100.00;38996.72;5113815;28;20201;-67
2023/10/20 01:41:26;;;;;;;32.17;30.77;;;;;;;-141.02;100.00;38964.13;5113797;28;20230;-70
2023/10/20 01:43:55;;;;;;;30.80;29.50;;;;;;;-141.02;100.00;38960.28;5114049;28;20251;-68
2023/10/20 01:49:45;;;;;;;29.50;28.30;;;;;;;-141.02;100.00;38921.94;5113678;28;20176;-67
2023/10/20 01:52:16;;;;;;;30.73;29.42;;;;;;;-141.02;100.00;38864.41;5113469;28;20193;-67
2023/10/20 01:54:47;;;;;;;29.00;27.80;;;;;;;-141.02;100.00;38829.88;5113461;28;20574;-69
2023/10/20 02:00:39;;;;;;;26.35;25.33;;;;;;;-141.02;100.00;38833.72;5113785;28;20250;-69
2023/10/20 02:03:06;;;;;;;33.90;32.30;;;;;;;-141.02;100.00;38837.56;5113615;28;20204;-69
2023/10/20 02:05:37;;;;;;;32.90;31.40;;;;;;;-141.02;100.00;38866.31;5113447;28;20280;-67
2023/10/20 02:08:37;;;;;;;32.90;31.48;;;;;;;-141.02;100.00;38835.63;5113240;28;20215;-69
2023/10/20 02:11:08;;;;;;;32.58;31.17;;;;;;;-141.02;100.00;38818.38;5113153;28;20200;-69
2023/10/20 02:14:14;;;;;;;31.60;30.20;;;;;;;-141.02;100.00;38799.22;5113426;28;20272;-67
2023/10/20 02:16:48;;;;;;;31.98;30.58;;;;;;;-141.02;100.00;38799.22;5112490;28;20192;-69
2023/10/20 02:19:17;;;;;;;29.08;27.88;;;;;;;-141.02;100.00;38770.44;5113108;28;20229;-70
2023/10/20 02:22:19;;;;;;;29.25;28.05;;;;;;;-141.02;100.00;38707.19;5113193;28;20197;-68
2023/10/20 02:24:46;;;;;;;27.60;26.50;;;;;;;-141.02;100.00;38638.16;5112853;28;20677;-69
2023/10/20 02:27:54;;;;;;;28.05;26.90;;;;;;;-141.02;100.00;38498.19;5113356;28;20235;-67
2023/10/20 02:30:33;;;;;;;28.83;27.63;;;;;;;-141.02;100.00;38296.88;5113184;28;20639;-67
2023/10/20 02:33:03;;;;;;;28.63;27.42;;;;;;;-141.02;100.00;38132.00;5113034;28;20193;-69
2023/10/20 02:35:34;;;;;;;26.05;25.05;;;;;;;-141.02;100.00;37924.97;5112793;28;20201;-68
2023/10/20 02:38:04;;;;;;;26.15;25.15;;;;;;;-141.02;100.00;37859.78;5112708;28;20557;-69
2023/10/20 02:40:35;;;;;;;24.50;23.60;;;;;;;-141.02;100.00;37725.63;5112753;28;20284;-67
2023/10/20 02:43:03;;;;;;;21.60;20.80;;;;;;;-141.02;100.00;37566.53;5112689;28;20268;-70
2023/10/20 02:46:00;;;;;;;21.65;20.85;;;;;;;-141.02;100.00;37484.09;5113006;28;20193;-66
2023/10/20 02:48:34;;;;;;;23.50;22.60;;;;;;;-141.02;100.00;37409.34;5112851;28;20643;-68
2023/10/20 02:51:13;;;;;;;23.55;22.65;;;;;;;-141.02;100.00;37441.94;5112542;28;20761;-67
2023/10/20 02:53:40;;;;;;;22.67;21.88;;;;;;;-141.02;100.00;37436.19;5112532;28;20219;-69
2023/10/20 03:02:22;;;;;;;21.27;20.58;;;;;;;-141.02;100.00;37363.34;5112703;28;20235;-67
2023/10/20 03:04:55;;;;;;;23.27;22.38;;;;;;;-141.02;100.00;37361.44;5112927;28;20276;-69
2023/10/20 03:07:27;;;;;;;21.75;20.95;;;;;;;-141.02;100.00;37489.84;5112380;28;20220;-68
2023/10/20 03:09:57;;;;;;;24.60;23.70;;;;;;;-141.02;100.00;37499.44;5112342;28;20236;-70
2023/10/20 03:12:26;;;;;;;23.20;22.30;;;;;;;-141.02;100.00;37579.94;5112523;28;20204;-70
2023/10/20 03:15:30;;;;;;;27.33;26.23;;;;;;;-141.02;100.00;37545.44;5112216;28;20193;-70
2023/10/20 03:18:00;;;;;;;19.10;18.50;;;;;;;-141.02;100.00;37553.09;5112222;28;20188;-70
2023/10/20 03:20:32;;;;;;;26.90;25.80;;;;;;;-141.02;100.00;37579.94;5112549;28;20224;-69
2023/10/20 03:23:08;;;;;;;24.13;23.23;;;;;;;-141.02;100.00;37602.94;5112576;28;20185;-69
2023/10/20 03:25:36;;;;;;;29.13;27.90;;;;;;;-141.02;100.00;37578.03;5112452;28;20218;-67
2023/10/20 03:28:05;;;;;;;25.27;24.27;;;;;;;-141.02;100.00;37526.28;5112954;28;20232;-70
2023/10/20 03:30:39;;;;;;;27.33;26.23;;;;;;;-141.02;100.00;37505.19;5116345;28;20204;-69
2023/10/20 03:33:06;;;;;;;10.37;10.07;;;;;;;-141.02;100.00;37455.34;5117246;28;20204;-69
2023/10/20 03:35:36;;;;;;;9.65;9.35;;;;;;;-141.02;100.00;37514.78;5116545;28;20200;-69
2023/10/20 03:38:04;;;;;;;8.82;8.63;;;;;;;-141.02;100.00;37595.28;5116321;28;20203;-68
2023/10/20 03:40:36;;;;;;;9.05;8.85;;;;;;;-141.02;100.00;37624.03;5116190;28;20242;-69
2023/10/20 03:43:03;;;;;;;11.20;10.90;;;;;;;-141.02;100.00;37629.78;5116046;28;20254;-69
2023/10/20 03:45:39;;;;;;;9.80;9.50;;;;;;;-141.02;100.00;37704.53;5116350;28;20193;-69
2023/10/20 03:48:08;;;;;;;9.98;9.68;;;;;;;-141.02;100.00;37704.53;5115852;28;20219;-67
2023/10/20 03:50:38;;;;;;;11.17;10.87;;;;;;;-141.02;100.00;37817.63;5116211;28;20196;-70
2023/10/20 03:53:06;;;;;;;12.75;12.35;;;;;;;-141.02;100.00;37731.38;5116193;28;20198;-69
2023/10/20 03:55:34;;;;;;;10.00;9.70;;;;;;;-141.02;100.00;37737.13;5116176;28;20197;-67
2023/10/20 03:58:02;;;;;;;11.50;11.20;;;;;;;-141.02;100.00;37771.63;5115658;28;20233;-68
2023/10/20 04:00:29;;;;;;;10.73;10.43;;;;;;;-141.02;100.00;37779.28;5115751;28;20224;-70
2023/10/20 04:02:57;;;;;;;10.98;10.68;;;;;;;-141.02;100.00;37760.13;5115997;28;20539;-69
2023/10/20 04:05:25;;;;;;;38.77;37.10;;;;;;;-141.02;100.00;37773.53;5115519;28;20280;-70
2023/10/20 04:07:54;;;;;;;29.63;28.42;;;;;;;-141.02;100.00;37767.78;5115777;28;20239;-67
2023/10/20 04:10:24;;;;;;;25.48;24.50;;;;;;;-141.02;100.00;37744.78;5115568;28;20193;-67
2023/10/20 04:12:52;;;;;;;22.15;21.35;;;;;;;-141.02;100.00;37785.03;5115478;28;20293;-66
2023/10/20 04:15:25;;;;;;;24.30;23.40;;;;;;;-141.02;100.00;37786.94;5115464;28;20647;-70
2023/10/20 04:17:52;;;;;;;25.53;24.53;;;;;;;-141.02;100.00;37790.78;5115817;27;20246;-70
2023/10/20 04:20:20;;;;;;;26.47;25.47;;;;;;;-141.02;100.00;37794.63;5115704;28;20262;-70
2023/10/20 04:22:50;;;;;;;21.97;21.17;;;;;;;-141.02;100.00;37813.78;5115559;28;20242;-70
2023/10/20 04:25:23;;;;;;;19.38;18.77;;;;;;;-141.02;100.00;37854.03;5115271;28;20208;-68
2023/10/20 04:27:51;;;;;;;24.90;24.00;;;;;;;-141.02;100.00;37859.78;5115365;28;20213;-69
2023/10/20 04:57:52;;;;;;;21.35;20.65;;;;;;;-141.02;100.00;38396.56;5114302;28;20724;-68
2023/10/20 05:03:15;;;;;;;21.20;20.50;;;;;;;-141.02;100.00;38561.47;5111867;28;20284;-71
2023/10/20 05:05:44;;;;;;;20.25;19.55;;;;;;;-141.02;100.00;38594.06;5114597;28;20189;-70
2023/10/20 05:08:17;;;;;;;20.50;19.80;;;;;;;-141.02;100.00;38622.81;5114405;28;20224;-66
2023/10/20 05:10:45;;;;;;;21.90;21.10;;;;;;;-141.02;100.00;38668.81;5114418;28;20199;-66
2023/10/20 05:13:13;;;;;;;22.63;21.83;;;;;;;-141.02;100.00;38718.69;5114940;28;20193;-71
2023/10/20 05:15:41;;;;;;;17.85;17.25;;;;;;;-141.02;100.00;38745.53;5114554;28;20197;-69
2023/10/20 05:18:11;;;;;;;20.83;20.13;;;;;;;-141.02;100.00;38837.56;5114522;28;20203;-70
2023/10/20 05:20:38;;;;;;;18.50;17.90;;;;;;;-141.02;100.00;38818.38;5114472;28;20246;-71
2023/10/20 05:23:05;;;;;;;17.98;17.38;;;;;;;-141.02;100.00;38841.41;5114156;28;20288;-70
2023/10/20 05:25:32;;;;;;;17.08;16.55;;;;;;;-141.02;100.00;38883.56;5114414;28;20193;-70
2023/10/20 05:28:00;;;;;;;12.85;12.45;;;;;;;-141.02;100.00;38910.44;5113936;28;20236;-70
2023/10/20 05:30:28;;;;;;;16.88;16.38;;;;;;;-141.02;100.00;38933.44;5114289;28;20197;-70
2023/10/20 05:32:55;;;;;;;14.30;13.90;;;;;;;-141.02;100.00;39002.47;5114153;28;20197;-69
2023/10/20 05:35:22;;;;;;;16.60;16.10;;;;;;;-141.02;100.00;39071.50;5114233;28;20193;-70
2023/10/20 05:37:50;;;;;;;19.40;18.77;;;;;;;-141.02;100.00;39094.50;5114025;28;20644;-70
2023/10/20 05:40:17;;;;;;;17.17;16.67;;;;;;;-141.02;100.00;39138.63;5113782;28;20197;-70
2023/10/20 05:42:44;;;;;;;20.75;20.05;;;;;;;-141.02;100.00;39146.28;5113757;28;20283;-68
2023/10/20 05:45:17;;;;;;;23.38;22.48;;;;;;;-141.02;100.00;39209.56;5113670;28;20650;-66
2023/10/20 05:47:45;;;;;;;22.67;21.88;;;;;;;-141.02;100.00;39267.09;5113616;28;20697;-67
2023/10/20 05:50:13;;;;;;;23.35;22.45;;;;;;;-141.02;100.00;39276.69;5113872;28;20189;-68
2023/10/20 05:52:40;;;;;;;24.80;23.80;;;;;;;-141.02;100.00;39305.44;5113592;28;20197;-70
2023/10/20 05:55:08;;;;;;;25.30;24.30;;;;;;;-141.02;100.00;39351.47;5113821;28;20257;-70
2023/10/20 05:57:35;;;;;;;27.92;26.73;;;;;;;-141.02;100.00;39428.19;5113530;28;20275;-70
2023/10/20 06:00:03;;;;;;;29.63;28.33;;;;;;;-141.02;100.00;39493.41;5113664;28;20193;-68
2023/10/20 06:02:31;;;;;;;28.10;26.90;;;;;;;-141.02;100.00;39527.91;5113369;28;20689;-67
2023/10/20 06:04:59;;;;;;;30.95;29.65;;;;;;;-141.02;100.00;39589.28;5113610;28;20270;-71
2023/10/20 06:07:27;;;;;;;33.05;31.55;;;;;;;-141.02;100.00;39643.00;5113364;28;20307;-69
2023/10/20 06:09:54;;;;;;;32.78;31.27;;;;;;;-141.02;100.00;39704.38;5113189;28;20659;-67
2023/10/20 06:12:21;;;;;;;34.28;32.67;;;;;;;-141.02;100.00;39725.47;5113394;28;20199;-70
2023/10/20 06:14:48;;;;;;;33.83;32.33;;;;;;;-141.02;100.00;39786.84;5113110;28;20189;-70
2023/10/20 06:17:17;;;;;;;16.95;16.25;;;;;;;-141.02;100.00;39884.66;5113541;28;20283;-68
2023/10/20 06:19:46;;;;;;;17.48;16.77;;;;;;;-141.02;100.00;39913.44;5113270;28;20193;-68
2023/10/20 06:22:14;;;;;;;16.88;16.17;;;;;;;-141.02;100.00;39871.22;5112951;28;20193;-70
2023/10/20 06:24:41;;;;;;;15.48;14.88;;;;;;;-141.02;100.00;39900.00;5112870;28;20284;-70
2023/10/20 06:27:08;;;;;;;17.15;16.45;;;;;;;-141.02;100.00;39928.78;5113181;28;20231;-70
2023/10/20 06:29:48;;;;;;;17.05;16.35;;;;;;;-141.02;100.00;39946.03;5112903;28;20204;-70
2023/10/20 06:32:25;;;;;;;15.82;15.23;;;;;;;-141.02;100.00;39903.84;5112887;28;20189;-68
2023/10/20 06:34:59;;;;;;;16.45;15.75;;;;;;;-141.02;100.00;39957.53;5112819;28;20221;-69
2023/10/20 06:37:35;;;;;;;16.10;15.50;;;;;;;-141.02;100.00;39892.34;5112761;28;20189;-69
2023/10/20 06:40:03;;;;;;;15.95;15.35;;;;;;;-141.02;100.00;39884.66;5112702;28;20189;-70
2023/10/20 06:42:30;;;;;;;15.65;15.05;;;;;;;-141.02;100.00;39882.75;5113000;28;20250;-69
2023/10/20 06:44:57;;;;;;;16.23;15.63;;;;;;;-141.02;100.00;39871.22;5112651;28;20254;-69
2023/10/20 06:47:24;;;;;;;32.40;30.90;;;;;;;-141.02;100.00;39869.31;5112829;28;20256;-70
2023/10/20 06:49:51;;;;;;;15.85;15.25;;;;;;;-141.02;100.00;39846.28;5112937;28;20219;-69
2023/10/20 06:52:18;;;;;;;16.48;15.77;;;;;;;-141.02;100.00;39846.28;5112427;28;20199;-68
2023/10/20 06:54:48;;;;;;;15.52;14.93;;;;;;;-141.02;100.00;39550.94;5112477;28;20288;-69
2023/10/20 06:57:16;;;;;;;15.10;14.60;;;;;;;-141.02;100.00;39836.72;5112290;28;20229;-68
2023/10/20 06:59:43;;;;;;;16.00;15.40;;;;;;;-141.02;100.00;39884.66;5112416;28;20193;-69
2023/10/20 07:02:10;;;;;;;15.50;14.90;;;;;;;-141.02;100.00;39861.66;5112329;28;20197;-68
2023/10/20 07:04:37;;;;;;;14.60;14.10;;;;;;;-141.02;100.00;39842.47;5111935;28;20229;-67
2023/10/20 07:07:09;;;;;;;14.50;14.00;;;;;;;-141.02;100.00;39827.13;5112650;28;20197;-70
2023/10/20 07:09:37;;;;;;;13.85;13.45;;;;;;;-141.02;100.00;39852.06;5112514;28;20188;-68
2023/10/20 07:12:06;;;;;;;14.27;13.77;;;;;;;-141.02;100.00;39909.59;5112602;28;20196;-69
2023/10/20 07:14:34;;;;;;;14.73;14.23;;;;;;;-141.02;100.00;39877.00;5112540;28;20193;-70
2023/10/20 07:17:03;;;;;;;15.60;15.00;;;;;;;-141.02;100.00;39880.81;5112803;28;20219;-68
2023/10/20 07:19:33;;;;;;;16.30;15.60;;;;;;;-141.02;100.00;39919.19;5112447;28;20197;-67
2023/10/20 07:22:03;;;;;;;16.55;15.85;;;;;;;-141.02;100.00;39949.88;5112173;28;20576;-70
2023/10/20 07:24:32;;;;;;;16.33;15.63;;;;;;;-141.02;100.00;39811.78;5112485;28;20189;-68
2023/10/20 07:26:59;;;;;;;18.50;17.60;;;;;;;-141.02;100.00;40032.34;5112387;28;20251;-69
2023/10/20 07:29:27;;;;;;;18.58;17.67;;;;;;;-141.02;100.00;40057.28;5112404;28;20315;-69
2023/10/20 07:31:54;;;;;;;17.42;16.73;;;;;;;-141.02;100.00;40153.19;5112376;28;20188;-69
2023/10/20 07:34:22;;;;;;;18.20;17.40;;;;;;;-141.02;100.00;40233.75;5112358;28;20193;-70
2023/10/20 07:36:49;;;;;;;18.00;17.20;;;;;;;-141.02;100.00;40226.09;5112307;28;20521;-70
2023/10/20 07:39:17;;;;;;;18.17;17.38;;;;;;;-141.02;98.68;40264.47;5112372;28;20264;-69
2023/10/20 07:41:44;;;;;;;18.90;18.00;;;;;;;-141.02;96.96;40310.50;5112350;28;20197;-69
2023/10/20 07:44:13;;;;;;;18.35;17.55;;;;;;;-141.02;95.67;40325.84;5112263;28;20221;-69
2023/10/20 07:46:41;;;;;;;18.60;17.73;;;;;;;-141.02;93.72;40229.94;5111992;28;20201;-70
2023/10/20 07:49:11;;;;;;;18.55;17.65;;;;;;;-141.02;94.65;40322.00;5111921;28;20594;-69
2023/10/20 07:51:39;;;;;;;18.02;17.23;;;;;;;-141.02;93.33;40314.34;5111930;28;20250;-68
2023/10/20 07:54:07;;;;;;;18.25;17.45;;;;;;;-141.02;92.75;40331.59;5111802;28;20201;-69
2023/10/20 07:56:34;;;;;;;18.00;17.20;;;;;;;-141.02;94.08;40289.41;5111797;28;20286;-69
2023/10/20 07:59:01;;;;;;;18.60;17.80;;;;;;;-141.02;93.05;40322.00;5111785;28;20651;-70
2023/10/20 08:01:28;;;;;;;18.27;17.48;;;;;;;-141.02;93.16;40400.66;5112063;28;20276;-70
2023/10/20 08:03:56;;;;;;;17.80;17.00;;;;;;;-141.02;92.99;40437.09;5111894;28;20232;-69
2023/10/20 08:06:24;;;;;;;18.05;17.25;;;;;;;-141.02;92.27;40469.72;5112008;28;20251;-70
2023/10/20 08:08:52;;;;;;;18.40;17.60;;;;;;;-141.02;90.65;40511.94;5112512;28;20228;-69
2023/10/20 08:11:19;;;;;;;19.00;18.20;;;;;;;-141.02;89.74;40584.81;5111968;28;20247;-69
2023/10/20 08:13:50;;;;;;;18.92;18.13;;;;;;;-141.02;87.93;40613.59;5111651;28;20644;-68
2023/10/20 08:16:20;;;;;;;18.58;17.77;;;;;;;-141.02;85.05;40728.72;5114186;28;20193;-68
2023/10/20 08:18:47;;;;;;;19.05;18.17;;;;;;;-141.02;80.95;40747.91;5115721;28;20284;-68
2023/10/20 08:21:16;;;;;;;19.50;18.50;;;;;;;-141.02;79.99;40801.63;5115696;28;20371;-67
2023/10/20 08:23:43;;;;;;;19.23;18.33;;;;;;;-141.02;78.28;40828.47;5115855;28;20224;-68
2023/10/20 08:26:16;;;;;;;19.73;18.73;;;;;;;-141.02;76.54;40897.56;5115858;28;20197;-69
2023/10/20 08:28:43;;;;;;;19.35;18.35;;;;;;;-141.02;76.72;40864.94;5115421;28;20228;-69
2023/10/20 08:31:28;;;;;;;19.25;18.35;;;;;;;-141.02;75.50;40980.06;5115487;28;20200;-68
2023/10/20 08:33:55;;;;;;;20.42;19.42;;;;;;;-141.02;72.96;41008.84;5115607;28;20284;-68
2023/10/20 08:36:23;;;;;;;19.63;18.73;;;;;;;-141.02;74.05;41039.53;5115421;28;20221;-68
2023/10/20 08:38:52;;;;;;;20.48;19.48;;;;;;;-141.02;74.12;41108.59;5115310;28;20193;-68
2023/10/20 08:41:21;;;;;;;19.33;18.42;;;;;;;-141.02;71.61;41135.47;5115048;28;20289;-69
2023/10/20 08:43:48;;;;;;;20.05;19.05;;;;;;;-141.02;70.33;41204.53;5114866;28;20659;-68
2023/10/20 08:46:17;;;;;;;20.48;19.48;;;;;;;-141.02;69.61;41265.94;5115192;28;20200;-68
2023/10/20 08:48:45;;;;;;;20.40;19.40;;;;;;;-141.02;69.29;41260.19;5114818;28;20312;-68
2023/10/20 08:51:13;;;;;;;20.23;19.23;;;;;;;-141.02;68.62;41346.53;5114856;28;20193;-70
2023/10/20 08:53:42;;;;;;;20.63;19.63;;;;;;;-141.02;69.43;41358.06;5114803;28;20253;-68
2023/10/20 08:56:12;;;;;;;19.35;18.35;;;;;;;-141.02;68.76;41409.88;5114736;28;20197;-68
2023/10/20 08:58:39;;;;;;;19.48;18.48;;;;;;;-141.02;68.42;41457.84;5114964;28;20310;-68
2023/10/20 09:01:06;;;;;;;19.55;18.55;;;;;;;-141.02;65.74;41454.00;5114644;28;20232;-68
2023/10/20 09:03:41;;;;;;;19.83;18.83;;;;;;;-141.02;64.22;41576.81;5115127;28;20193;-69
2023/10/20 09:06:11;;;;;;;19.75;18.75;;;;;;;-141.02;63.03;41695.81;5114527;28;20669;-68
2023/10/20 09:08:39;;;;;;;20.35;19.25;;;;;;;-141.02;62.76;41789.84;5114742;28;20217;-70
2023/10/20 09:11:12;;;;;;;20.45;19.35;;;;;;;-141.02;60.33;41976.00;5114759;28;20277;-69
2023/10/20 09:13:40;;;;;;;19.85;18.85;;;;;;;-141.02;58.88;42018.22;5114966;28;20231;-69
2023/10/20 09:16:10;;;;;;;20.33;19.23;;;;;;;-141.02;58.94;42171.78;5114533;28;20280;-69
2023/10/20 09:18:45;;;;;;;20.50;19.40;;;;;;;-141.02;58.01;42152.56;5114495;28;20212;-70
2023/10/20 09:21:14;;;;;;;20.70;19.55;;;;;;;-141.02;60.04;42071.97;5114642;28;20196;-68
2023/10/20 09:23:41;;;;;;;20.38;19.27;;;;;;;-141.02;61.04;42075.81;5114405;28;20193;-69
2023/10/20 09:26:10;;;;;;;20.65;19.45;;;;;;;-141.02;58.50;42142.97;5114254;28;20284;-68
2023/10/20 09:28:37;;;;;;;20.77;19.58;;;;;;;-141.02;57.54;42121.88;5114263;28;20317;-69
2023/10/20 09:31:06;;;;;;;20.40;19.27;;;;;;;-141.02;58.33;42089.25;5114325;28;20295;-69
2023/10/20 09:33:33;;;;;;;20.33;19.23;;;;;;;-141.02;58.65;42014.38;5114304;28;20280;-70
2023/10/20 09:36:00;;;;;;;20.25;19.15;;;;;;;-141.02;59.08;42106.50;5113946;28;20724;-69
2023/10/20 09:38:28;;;;;;;20.15;19.05;;;;;;;-141.02;58.33;42121.88;5114174;28;20224;-69
2023/10/20 09:41:11;;;;;;;19.50;18.50;;;;;;;-141.02;59.05;42095.00;5113748;28;20208;-69
2023/10/20 09:43:46;;;;;;;19.52;18.52;;;;;;;-141.02;57.93;42160.25;5114349;28;20318;-69
2023/10/20 09:46:21;;;;;;;19.35;18.35;;;;;;;-141.02;59.58;42158.34;5114120;28;20614;-70
2023/10/20 09:48:52;;;;;;;18.88;17.98;;;;;;;-141.02;59.78;42071.97;5113649;28;20406;-69
2023/10/20 09:51:21;;;;;;;19.45;18.45;;;;;;;-141.02;59.80;41922.25;5113978;28;20200;-71
2023/10/20 09:53:49;;;;;;;19.48;18.48;;;;;;;-141.02;59.07;41864.69;5114095;28;20209;-71
2023/10/20 09:56:17;;;;;;;19.70;18.60;;;;;;;-141.02;58.86;41845.50;5113254;28;20193;-69
2023/10/20 09:58:46;;;;;;;18.95;17.95;;;;;;;-141.02;59.21;41853.16;5113455;28;20280;-69
2023/10/20 10:01:14;;;;;;;19.02;18.02;;;;;;;-141.02;59.69;41937.63;5113406;28;20230;-68
2023/10/20 10:03:48;;;;;;;19.60;18.58;;;;;;;-141.02;59.10;42035.50;5113389;28;20284;-69
2023/10/20 10:06:16;;;;;;;19.80;18.70;;;;;;;-141.02;58.74;42200.56;5114242;28;20191;-70
2023/10/20 10:08:45;;;;;;;19.55;18.48;;;;;;;-141.02;57.46;42363.72;5113118;28;20228;-70
2023/10/20 10:11:22;;;;;;;19.77;18.67;;;;;;;-141.02;56.69;42398.25;5113478;28;20197;-69
2023/10/20 10:14:01;;;;;;;20.05;18.95;;;;;;;-141.02;54.68;42475.03;5113483;27;20236;-70
2023/10/20 10:16:28;;;;;;;20.08;18.98;;;;;;;-141.02;55.18;42457.75;5113426;28;20193;-70
2023/10/20 10:18:55;;;;;;;20.00;18.90;;;;;;;-141.02;53.58;42452.00;5113689;28;20279;-69
2023/10/20 10:21:25;;;;;;;19.95;18.75;;;;;;;-141.02;53.72;42348.34;5113165;28;20197;-71
2023/10/20 10:24:10;;;;;;;19.90;18.80;;;;;;;-141.02;51.69;42569.09;5113538;28;20287;-70
2023/10/20 10:26:45;;;;;;;19.65;18.55;;;;;;;-141.02;50.13;42542.22;5113241;28;20192;-69
2023/10/20 10:29:14;;;;;;;19.98;18.88;;;;;;;-141.02;50.35;42590.22;5113454;28;20590;-71
2023/10/20 10:31:41;;;;;;;20.00;18.90;;;;;;;-141.02;50.53;42655.47;5113143;28;20222;-71
2023/10/20 10:34:09;;;;;;;19.77;18.67;;;;;;;-141.02;50.50;42774.50;5113835;28;20275;-70
2023/10/20 10:36:47;;;;;;;18.92;17.83;;;;;;;-141.02;50.02;42791.78;5112841;27;20201;-71
2023/10/20 10:39:24;;;;;;;18.08;17.08;;;;;;;-141.02;49.98;42766.81;5112130;28;20258;-70
2023/10/20 10:41:53;;;;;;;18.00;17.00;;;;;;;-141.02;49.84;42812.91;5112634;28;20283;-72
2023/10/20 10:44:23;;;;;;;18.08;17.08;;;;;;;-141.02;49.88;42878.16;5112952;28;20204;-70
2023/10/20 10:46:51;;;;;;;19.60;18.50;;;;;;;-141.02;49.17;42882.00;5112612;28;20190;-71
2023/10/20 10:49:18;;;;;;;19.05;17.95;;;;;;;-141.02;49.61;42970.31;5112512;28;20233;-70
2023/10/20 10:51:46;;;;;;;19.67;18.58;;;;;;;-141.02;49.40;42983.75;5112628;28;20288;-71
2023/10/20 10:54:14;;;;;;;19.38;18.27;;;;;;;-141.02;48.72;43068.22;5112907;28;20224;-71
2023/10/20 10:56:42;;;;;;;19.10;18.00;;;;;;;-141.02;48.79;42943.44;5112438;28;20315;-70
2023/10/20 10:59:14;;;;;;;19.17;18.17;;;;;;;-141.02;48.97;42997.19;5112669;28;20257;-70
2023/10/20 11:01:43;;;;;;;19.30;18.20;;;;;;;-141.02;48.62;43045.19;5112840;28;20274;-70
2023/10/20 11:04:11;;;;;;;19.25;18.25;;;;;;;-141.02;49.02;43066.31;5112345;28;20280;-71
2023/10/20 11:06:38;;;;;;;19.17;18.10;;;;;;;-141.02;49.35;43075.91;5112354;28;20219;-71
2023/10/20 11:09:10;;;;;;;19.88;18.67;;;;;;;-141.02;49.02;43072.06;5112267;28;20264;-70
2023/10/20 11:11:42;;;;;;;19.27;18.17;;;;;;;-141.02;49.19;43075.91;5112884;28;20730;-70
2023/10/20 11:14:11;;;;;;;19.27;18.17;;;;;;;-141.02;49.57;43100.88;5112399;28;20288;-70
2023/10/20 11:16:38;;;;;;;19.35;18.25;;;;;;;-141.02;48.98;43116.22;5112236;28;20189;-70
2023/10/20 11:19:07;;;;;;;19.20;18.10;;;;;;;-141.02;49.07;43120.06;5112230;28;20197;-70
2023/10/20 11:21:45;;;;;;;18.92;17.92;;;;;;;-141.02;48.77;43143.09;5112536;28;20193;-69
2023/10/20 11:24:26;;;;;;;19.05;17.95;;;;;;;-141.02;48.75;43216.06;5112580;28;20634;-71
2023/10/20 11:27:00;;;;;;;18.95;17.85;;;;;;;-141.02;49.02;43189.19;5112376;28;20200;-69
2023/10/20 11:29:29;;;;;;;19.02;17.92;;;;;;;-141.02;48.68;43196.88;5112413;28;20217;-69
2023/10/20 11:31:59;;;;;;;18.83;17.83;;;;;;;-141.02;49.45;43204.56;5112105;28;20224;-69
2023/10/20 11:34:28;;;;;;;19.17;18.08;;;;;;;-141.02;49.22;43214.16;5112467;28;20272;-70
2023/10/20 11:36:55;;;;;;;19.05;17.95;;;;;;;-141.02;49.51;43193.03;5112139;28;20671;-69
2023/10/20 11:39:24;;;;;;;18.98;17.88;;;;;;;-141.02;49.22;43196.88;5112590;28;20284;-69
2023/10/20 11:41:52;;;;;;;19.05;17.95;;;;;;;-141.02;49.69;43221.81;5112312;28;20201;-69
2023/10/20 11:44:19;;;;;;;18.95;17.95;;;;;;;-141.02;49.11;43198.78;5112590;28;20200;-69
2023/10/20 11:46:46;;;;;;;19.42;18.33;;;;;;;-141.02;49.61;43214.16;5112405;28;20197;-69
2023/10/20 11:49:13;;;;;;;20.45;19.25;;;;;;;-141.02;49.07;43285.19;5113080;28;20258;-68
2023/10/20 11:51:41;;;;;;;18.75;17.73;;;;;;;-141.02;49.66;43242.94;5116388;27;20189;-69
2023/10/20 11:54:08;;;;;;;18.70;17.65;;;;;;;-141.02;49.43;43248.72;5116163;28;20276;-70
2023/10/20 11:56:35;;;;;;;18.70;17.60;;;;;;;-141.02;49.40;43277.50;5115928;28;20225;-69